This is the latest recevied weather packets stored in our database for station/object NA9VY-8. If no packets are shown the sender has not sent any weather packets the latest 10 day(s).
| Time | Temp. | Humidity | Pressure | Rain* | Wind** | Luminosity | Snow |
|---|---|---|---|---|---|---|---|
| 1777562958 | 11.67° C | 58% | 1023.1 hPa | 0 mm | - | 794 W/m² | - |
| 1777562654 | 11.67° C | 58% | 1023.3 hPa | 0 mm | - | 746 W/m² | - |
| 1777562354 | 12.22° C | 63% | 1023.2 hPa | 0 mm | - | 610 W/m² | - |
| 1777562050 | 11.67° C | 58% | 1023.3 hPa | 0 mm | - | 634 W/m² | - |
| 1777561747 | 11.67° C | 63% | 1023.6 hPa | 0 mm | - | 254 W/m² | - |
| 1777561443 | 11.67° C | 62% | 1023.8 hPa | 0 mm | - | 625 W/m² | - |
| 1777561138 | 11.67° C | 65% | 1023.6 hPa | 0 mm | - | 548 W/m² | - |
| 1777560833 | 11.11° C | 63% | 1023.7 hPa | 0 mm | - | 619 W/m² | - |
| 1777560531 | 11.11° C | 68% | 1023.8 hPa | 0 mm | - | 579 W/m² | - |
| 1777560229 | 10.56° C | 66% | 1023.8 hPa | 0 mm | - | 505 W/m² | - |
| 1777559925 | 10.56° C | 68% | 1023.9 hPa | 0 mm | - | 604 W/m² | - |
| 1777559620 | 10° C | 67% | 1023.9 hPa | 0 mm | - | 559 W/m² | - |
| 1777559319 | 10.56° C | 68% | 1024 hPa | 0 mm | - | 539 W/m² | - |
| 1777559014 | 10° C | 70% | 1024 hPa | 0 mm | - | 547 W/m² | - |
| 1777558710 | 10° C | 70% | 1023.9 hPa | 0 mm | - | 530 W/m² | - |
| 1777558406 | 10° C | 72% | 1024 hPa | 0 mm | - | 504 W/m² | - |
| 1777558102 | 9.44° C | 72% | 1023.8 hPa | 0 mm | - | 473 W/m² | - |
| 1777557799 | 10° C | 74% | 1023.9 hPa | 0 mm | - | 410 W/m² | - |
| 1777557495 | 9.44° C | 73% | 1024.1 hPa | 0 mm | - | 331 W/m² | - |
| 1777557192 | 9.44° C | 74% | 1024.1 hPa | 0 mm | - | 431 W/m² | - |
| 1777556888 | 9.44° C | 74% | 1024 hPa | 0 mm | - | 305 W/m² | - |
| 1777556584 | 8.89° C | 75% | 1024.1 hPa | 0 mm | - | 354 W/m² | - |
| 1777556283 | 8.89° C | 76% | 1024.1 hPa | 0 mm | - | 351 W/m² | - |
| 1777555980 | 8.89° C | 79% | 1024.2 hPa | 0 mm | - | 308 W/m² | - |
| 1777555675 | 8.89° C | 78% | 1024.1 hPa | 0 mm | - | 307 W/m² | - |
* Rain latest hour (hover to see other rain measurements)
** Current wind speed in m/s (hover to see current wind gust speed)